Time;durP1;ratioP1;P1;durP2;ratioP2;P2;SDS_P1;SDS_P2;PMS_P1;PMS_P2;Temp;Humidity;BMP_temperature;BMP_pressure;BME280_temperature;BME280_humidity;BME280_pressure;Samples;Min_cycle;Max_cycle;Signal;HPM_P1;HPM_P2
2024/02/16 00:00:16;;;;;;;;;10.50;6.50;;;;;16.24;61.75;100359.44;5036452;28;60367;-68
2024/02/16 00:02:42;;;;;;;;;4.50;4.50;;;;;16.21;61.88;100349.06;5053168;28;45358;-66
2024/02/16 00:05:07;;;;;;;;;7.25;5.50;;;;;16.19;61.87;100353.56;5038630;28;45498;-67
2024/02/16 00:07:34;;;;;;;;;6.25;5.50;;;;;16.16;62.10;100347.63;5036905;28;76777;-68
2024/02/16 00:09:59;;;;;;;;;8.00;6.00;;;;;16.13;61.99;100348.66;5039618;28;45865;-67
2024/02/16 00:12:25;;;;;;;;;7.00;4.75;;;;;16.12;62.51;100350.44;5039293;28;45303;-66
2024/02/16 00:14:50;;;;;;;;;7.25;5.75;;;;;16.10;62.44;100349.66;5042359;28;45389;-68
2024/02/16 00:17:15;;;;;;;;;6.25;5.75;;;;;16.09;62.55;100349.75;5038282;28;68693;-67
2024/02/16 00:19:41;;;;;;;;;7.25;5.50;;;;;16.10;62.36;100354.94;5035578;28;45122;-67
2024/02/16 00:22:09;;;;;;;;;9.25;7.00;;;;;16.13;62.34;100348.66;5040707;28;45287;-67
2024/02/16 00:24:36;;;;;;;;;8.00;5.50;;;;;16.12;62.55;100341.66;5039824;28;45340;-67
2024/02/16 00:27:01;;;;;;;;;8.00;7.00;;;;;16.15;62.47;100352.06;5039165;28;46189;-67
2024/02/16 00:29:27;;;;;;;;;7.00;7.00;;;;;16.18;62.55;100349.22;5041540;28;45609;-67
2024/02/16 00:31:52;;;;;;;;;6.75;5.75;;;;;16.20;62.73;100347.38;5044568;28;67053;-67
2024/02/16 00:34:17;;;;;;;;;7.50;6.75;;;;;16.22;62.72;100350.78;5037888;28;46017;-68
2024/02/16 00:36:44;;;;;;;;;8.75;7.00;;;;;16.24;62.57;100350.69;5038058;28;68216;-68
2024/02/16 00:39:09;;;;;;;;;6.00;6.00;;;;;16.26;62.55;100354.09;5041307;28;47190;-67
2024/02/16 00:41:34;;;;;;;;;6.50;5.00;;;;;16.26;62.54;100360.22;5042693;28;45471;-68
2024/02/16 00:44:00;;;;;;;;;5.50;5.50;;;;;16.28;62.55;100358.31;5047703;28;72026;-67
2024/02/16 00:46:25;;;;;;;;;9.25;5.25;;;;;16.29;62.60;100351.28;5043434;28;73781;-68
2024/02/16 00:48:52;;;;;;;;;7.00;6.00;;;;;16.31;62.48;100370.53;5040308;28;45290;-67
2024/02/16 00:51:17;;;;;;;;;4.50;4.50;;;;;16.31;62.65;100363.44;5047905;28;45394;-68
2024/02/16 00:53:42;;;;;;;;;4.75;4.75;;;;;16.35;62.59;100369.41;5042325;28;57870;-67
2024/02/16 00:56:08;;;;;;;;;5.67;4.67;;;;;16.33;62.56;100373.91;5041901;28;74409;-67
2024/02/16 00:58:34;;;;;;;;;4.00;4.00;;;;;16.35;62.55;100369.41;5033783;28;45458;-68
2024/02/16 01:00:59;;;;;;;;;5.00;4.50;;;;;16.36;62.75;100376.41;5028841;28;45458;-67
2024/02/16 01:03:26;;;;;;;;;9.00;6.00;;;;;16.36;62.75;100370.25;5039328;28;72003;-67
2024/02/16 01:05:54;;;;;;;;;7.50;6.50;;;;;16.37;62.71;100372.81;5038777;28;46307;-68
2024/02/16 01:08:19;;;;;;;;;6.00;5.00;;;;;16.39;62.88;100376.19;5042221;28;45846;-68
2024/02/16 01:10:46;;;;;;;;;4.50;4.50;;;;;16.39;62.65;100378.84;5042271;28;45571;-67
2024/02/16 01:13:11;;;;;;;;;6.50;4.75;;;;;16.39;63.00;100375.34;5041452;28;45265;-67
2024/02/16 01:15:37;;;;;;;;;4.75;4.25;;;;;16.39;63.00;100376.19;5043717;28;72032;-68
2024/02/16 01:18:03;;;;;;;;;6.50;5.25;;;;;16.37;63.26;100383.38;5078127;27;45578;-67
2024/02/16 01:20:30;;;;;;;;;4.00;4.00;;;;;16.38;63.22;100378.94;5042762;28;45346;-69
2024/02/16 01:22:56;;;;;;;;;4.75;4.00;;;;;16.37;63.42;100375.44;5041004;28;45564;-67
2024/02/16 01:25:21;;;;;;;;;4.75;4.75;;;;;16.38;63.49;100376.28;5043081;28;46716;-67
2024/02/16 01:27:47;;;;;;;;;5.50;4.25;;;;;16.37;63.57;100374.59;5041924;28;65462;-66
2024/02/16 01:30:12;;;;;;;;;4.75;2.50;;;;;16.38;63.74;100376.28;5042875;28;47353;-67
2024/02/16 01:32:37;;;;;;;;;3.75;3.75;;;;;16.39;63.79;100384.13;5047088;28;45489;-67
2024/02/16 01:35:03;;;;;;;;;6.75;5.50;;;;;16.39;63.66;100384.13;5040440;28;48427;-67
2024/02/16 01:37:28;;;;;;;;;7.50;6.25;;;;;16.39;63.75;100380.63;5079392;27;45378;-67
2024/02/16 01:39:53;;;;;;;;;4.75;4.00;;;;;16.40;64.07;100377.06;5046023;28;45441;-67
2024/02/16 01:42:19;;;;;;;;;4.25;3.25;;;;;16.40;64.25;100375.28;5044325;28;47730;-67
2024/02/16 01:44:44;;;;;;;;;4.00;4.00;;;;;16.39;64.31;100375.34;5039889;28;46889;-68
2024/02/16 01:47:10;;;;;;;;;4.00;4.00;;;;;16.39;64.15;100383.28;5050384;28;70487;-67
2024/02/16 01:49:35;;;;;;;;;6.75;5.00;;;;;16.37;64.34;100375.44;5054796;28;68299;-67
2024/02/16 01:52:01;;;;;;;;;5.75;4.75;;;;;16.36;64.73;100378.16;5042311;28;70711;-67
2024/02/16 01:54:26;;;;;;;;;3.00;3.00;;;;;16.35;64.36;100384.41;5049119;28;45433;-67
2024/02/16 01:56:52;;;;;;;;;5.50;4.75;;;;;16.36;64.72;100381.69;5042162;28;45343;-68
2024/02/16 01:59:17;;;;;;;;;6.50;4.50;;;;;16.33;64.70;100381.84;5037126;28;45411;-68
2024/02/16 02:01:42;;;;;;;;;4.50;4.50;;;;;16.33;64.91;100387.97;5048840;28;73104;-67
2024/02/16 02:04:08;;;;;;;;;5.50;4.75;;;;;16.33;64.92;100381.84;5050026;28;74012;-67
2024/02/16 02:06:33;;;;;;;;;9.25;4.50;;;;;16.32;64.85;100375.72;5050831;28;45291;-67
2024/02/16 02:08:58;;;;;;;;;7.25;5.00;;;;;16.32;64.60;100378.38;5050989;28;65878;-68
2024/02/16 02:11:24;;;;;;;;;6.75;4.25;;;;;16.31;65.17;100376.66;5049381;28;73193;-67
2024/02/16 02:13:49;;;;;;;;;3.75;3.25;;;;;16.30;65.13;100380.22;5050462;28;47003;-67
2024/02/16 02:16:15;;;;;;;;;4.00;3.25;;;;;16.32;64.97;100382.78;5047387;28;73459;-67
2024/02/16 02:18:40;;;;;;;;;5.00;5.00;;;;;16.32;65.02;100388.06;5053781;28;45359;-67
2024/02/16 02:21:06;;;;;;;;;7.25;5.25;;;;;16.31;65.20;100384.56;5060018;28;45888;-67
2024/02/16 02:23:31;;;;;;;;;4.50;4.50;;;;;16.32;65.16;100385.41;5043340;28;74450;-67
2024/02/16 02:25:56;;;;;;;;;5.00;4.50;;;;;16.32;65.43;100391.56;5051933;28;47018;-67
2024/02/16 02:28:23;;;;;;;;;5.25;4.25;;;;;16.29;65.62;100386.44;5054449;28;60253;-67
2024/02/16 02:30:49;;;;;;;;;4.25;4.25;;;;;16.29;65.54;100393.53;5042583;28;45745;-67
2024/02/16 02:33:15;;;;;;;;;5.00;4.75;;;;;16.30;65.49;100395.22;5049200;28;46156;-67
2024/02/16 02:35:40;;;;;;;;;5.75;4.75;;;;;16.30;65.58;100396.06;5049073;28;47122;-68
2024/02/16 02:38:06;;;;;;;;;5.00;3.50;;;;;16.30;65.62;100403.13;5049481;28;52051;-68
2024/02/16 02:40:32;;;;;;;;;5.00;5.00;;;;;16.29;65.86;100404.09;5049179;28;45263;-68
2024/02/16 02:42:57;;;;;;;;;5.75;5.00;;;;;16.29;66.03;100407.56;5042433;28;60577;-68
2024/02/16 02:45:23;;;;;;;;;7.00;5.00;;;;;16.29;65.87;100404.94;5051973;28;45642;-68
2024/02/16 02:47:49;;;;;;;;;8.00;6.75;;;;;16.28;66.01;100405.00;5050868;28;45249;-68
2024/02/16 02:50:14;;;;;;;;;5.25;5.25;;;;;16.29;66.22;100404.09;5052119;28;45610;-67
2024/02/16 02:52:40;;;;;;;;;4.75;4.50;;;;;16.26;66.25;100402.47;5035458;28;67915;-67
2024/02/16 02:55:06;;;;;;;;;5.50;5.00;;;;;16.28;66.44;100408.50;5081958;27;45507;-67
2024/02/16 02:57:32;;;;;;;;;4.50;4.00;;;;;16.27;66.26;100405.94;5050088;28;45354;-68
2024/02/16 03:00:10;;;;;;;;;4.00;4.00;;;;;16.28;66.32;100411.13;5045955;28;53118;-68
2024/02/16 03:02:38;;;;;;;;;5.75;5.75;;;;;16.26;66.92;100415.66;5050307;28;46155;-67
2024/02/16 03:05:07;;;;;;;;;4.50;4.00;;;;;16.25;67.12;100421.88;5039440;28;45514;-67
2024/02/16 03:07:33;;;;;;;;;4.50;3.00;;;;;16.24;67.33;100419.34;5053988;28;45489;-68
2024/02/16 03:09:58;;;;;;;;;6.75;5.00;;;;;16.23;67.37;100418.47;5052652;28;45283;-66
2024/02/16 03:12:24;;;;;;;;;5.75;5.75;;;;;16.18;67.81;100427.59;5044357;28;45366;-66
2024/02/16 03:14:49;;;;;;;;;6.75;5.25;;;;;16.16;68.45;100429.47;5050222;28;45339;-66
2024/02/16 03:17:14;;;;;;;;;6.25;4.00;;;;;16.12;68.14;100432.25;5050974;28;45362;-67
2024/02/16 03:19:40;;;;;;;;;5.25;5.00;;;;;16.09;68.26;100437.69;5050513;28;67398;-66
2024/02/16 03:22:05;;;;;;;;;6.75;5.00;;;;;16.09;68.72;100444.78;5039738;28;45981;-66
2024/02/16 03:24:31;;;;;;;;;6.25;6.00;;;;;16.08;68.82;100435.16;5041239;28;72413;-67
2024/02/16 03:26:56;;;;;;;;;4.50;4.50;;;;;16.08;68.74;100441.28;5081339;27;71159;-67
2024/02/16 03:29:21;;;;;;;;;7.50;5.25;;;;;16.08;69.12;100445.72;5045959;28;61130;-67
2024/02/16 03:31:46;;;;;;;;;6.75;4.50;;;;;16.06;68.83;100440.53;5041670;28;75440;-67
2024/02/16 03:34:12;;;;;;;;;7.00;7.00;;;;;16.07;68.93;100439.56;5039648;28;71111;-67
2024/02/16 03:36:37;;;;;;;;;6.00;5.00;;;;;16.07;69.27;100431.66;5051792;28;53877;-67
2024/02/16 03:39:02;;;;;;;;;4.00;4.00;;;;;16.06;69.23;100432.63;5042401;28;71242;-67
2024/02/16 03:41:28;;;;;;;;;6.50;5.50;;;;;16.04;69.42;100434.50;5041739;28;46378;-67
2024/02/16 03:43:54;;;;;;;;;5.25;5.00;;;;;16.07;69.35;100446.66;5038612;28;45458;-66
2024/02/16 03:46:19;;;;;;;;;6.75;5.00;;;;;16.07;69.57;100451.94;5042653;28;45505;-67
2024/02/16 03:48:45;;;;;;;;;5.00;4.75;;;;;16.05;69.77;100441.44;5042283;28;45382;-67
2024/02/16 03:51:10;;;;;;;;;5.75;5.00;;;;;16.03;69.78;100438.06;5039640;28;45429;-67
2024/02/16 03:53:36;;;;;;;;;7.50;4.00;;;;;16.04;69.78;100425.69;5051921;28;45776;-67
2024/02/16 03:56:01;;;;;;;;;7.00;5.00;;;;;16.04;69.84;100438.91;5048808;28;45283;-66
2024/02/16 03:58:26;;;;;;;;;6.00;4.75;;;;;16.03;70.25;100434.56;5038235;28;72924;-67
2024/02/16 04:00:55;;;;;;;;;6.00;5.00;;;;;16.01;70.34;100434.66;5038166;28;75742;-67
2024/02/16 04:03:20;;;;;;;;;7.75;5.00;;;;;16.00;70.47;100446.13;5042277;28;45798;-66
2024/02/16 04:05:45;;;;;;;;;4.25;4.25;;;;;16.01;70.17;100447.00;5036469;28;45402;-66
2024/02/16 04:08:11;;;;;;;;;7.25;4.25;;;;;15.99;70.38;100441.81;5042189;28;45283;-66
2024/02/16 04:10:36;;;;;;;;;8.00;5.00;;;;;15.94;70.48;100443.84;5048532;28;45415;-67
2024/02/16 04:13:02;;;;;;;;;5.50;4.00;;;;;15.92;70.68;100456.25;5044054;28;73045;-68
2024/02/16 04:15:27;;;;;;;;;6.75;4.50;;;;;15.90;70.95;100451.06;5047499;28;45367;-68
2024/02/16 04:17:53;;;;;;;;;5.50;4.25;;;;;15.90;71.18;100458.97;5054048;28;47217;-68
2024/02/16 04:20:19;;;;;;;;;6.00;6.00;;;;;15.90;71.22;100460.75;5041108;28;46109;-67
2024/02/16 04:22:44;;;;;;;;;6.00;5.25;;;;;15.90;71.41;100466.03;5040311;28;45337;-67
2024/02/16 04:25:10;;;;;;;;;8.75;6.00;;;;;15.90;71.17;100464.25;5043640;28;63753;-68
2024/02/16 04:27:35;;;;;;;;;7.50;5.50;;;;;15.90;71.57;100469.53;5041670;28;71775;-67
2024/02/16 04:30:02;;;;;;;;;5.00;3.50;;;;;15.90;71.62;100487.13;5046773;28;47110;-67
2024/02/16 04:32:27;;;;;;;;;4.50;4.50;;;;;15.89;71.57;100478.38;5071284;27;45311;-67
2024/02/16 04:34:52;;;;;;;;;5.00;4.75;;;;;15.88;71.98;100489.88;5038551;28;70147;-67
2024/02/16 04:37:18;;;;;;;;;6.75;4.50;;;;;15.89;71.79;100488.94;5037991;28;57025;-67
2024/02/16 04:39:44;;;;;;;;;10.00;5.00;;;;;15.89;71.80;100499.50;5039827;28;46241;-67
2024/02/16 04:42:10;;;;;;;;;5.00;4.75;;;;;15.90;71.81;100509.13;5045451;28;45286;-67
2024/02/16 04:44:38;;;;;;;;;4.00;4.00;;;;;15.90;72.00;100509.13;5045451;28;45212;-68
2024/02/16 04:47:03;;;;;;;;;7.00;5.00;;;;;15.86;72.28;100512.84;5052493;28;45525;-67
2024/02/16 04:49:29;;;;;;;;;7.00;4.25;;;;;15.85;72.23;100521.72;5052899;28;45537;-67
2024/02/16 04:51:54;;;;;;;;;4.25;4.00;;;;;15.86;72.67;100527.81;5043909;28;72021;-67
2024/02/16 04:54:19;;;;;;;;;5.75;4.75;;;;;15.85;72.71;100539.34;5045368;28;52074;-66
2024/02/16 04:56:45;;;;;;;;;7.75;5.50;;;;;15.84;72.69;100542.88;5052839;28;60247;-67
2024/02/16 04:59:10;;;;;;;;;6.75;6.00;;;;;15.84;73.06;100545.53;5045920;28;46076;-68
2024/02/16 05:01:36;;;;;;;;;4.50;3.00;;;;;15.84;73.33;100549.00;5045040;28;45368;-67
2024/02/16 05:04:02;;;;;;;;;5.25;5.00;;;;;15.85;73.10;100549.88;5049625;28;45310;-68
2024/02/16 05:06:27;;;;;;;;;7.25;4.75;;;;;15.86;73.28;100551.56;5050948;28;45425;-68
2024/02/16 05:08:53;;;;;;;;;5.00;5.00;;;;;15.88;73.21;100560.25;5049834;28;46115;-68
2024/02/16 05:11:19;;;;;;;;;6.00;5.25;;;;;15.85;73.14;100558.66;5044921;28;45429;-68
2024/02/16 05:13:45;;;;;;;;;6.00;5.75;;;;;15.87;73.54;100569.13;5046277;28;45275;-67
2024/02/16 05:16:11;;;;;;;;;6.50;5.00;;;;;15.88;73.17;100568.19;5047791;28;45437;-68
2024/02/16 05:18:36;;;;;;;;;5.75;4.00;;;;;15.88;73.54;100576.97;5057327;28;46114;-67
2024/02/16 05:21:02;;;;;;;;;6.25;4.75;;;;;15.91;73.68;100575.94;5034620;28;45208;-67
2024/02/16 05:23:27;;;;;;;;;5.75;4.25;;;;;15.90;73.75;100576.88;5042265;28;59365;-67
2024/02/16 05:25:54;;;;;;;;;5.25;5.25;;;;;15.92;73.65;100573.22;5040353;28;58974;-68
2024/02/16 05:28:19;;;;;;;;;6.50;5.00;;;;;15.93;73.68;100576.72;5045434;28;46312;-68
2024/02/16 05:30:45;;;;;;;;;4.75;4.50;;;;;15.94;73.65;100584.56;5040748;28;45263;-68
2024/02/16 05:33:10;;;;;;;;;6.00;5.75;;;;;15.94;73.96;100581.91;5041832;28;45241;-67
2024/02/16 05:35:39;;;;;;;;;7.00;5.00;;;;;15.98;73.78;100598.44;5041958;28;45468;-67
2024/02/16 05:38:10;;;;;;;;;8.25;5.50;;;;;15.98;73.81;100589.69;5042743;28;46335;-67
2024/02/16 05:40:45;;;;;;;;;5.25;3.25;;;;;15.97;73.74;100591.47;5043599;28;45880;-67
2024/02/16 05:43:11;;;;;;;;;7.75;5.50;;;;;15.96;73.89;100597.69;5052110;28;45506;-67
2024/02/16 05:45:36;;;;;;;;;5.25;4.75;;;;;15.96;74.21;100597.69;5040883;28;47025;-67
2024/02/16 05:48:01;;;;;;;;;6.00;5.50;;;;;15.96;73.93;100592.41;5041733;28;71829;-68
2024/02/16 05:50:27;;;;;;;;;7.25;5.25;;;;;15.97;74.18;100601.16;5041872;28;45429;-68
2024/02/16 05:52:52;;;;;;;;;7.25;5.00;;;;;15.98;74.33;100600.25;5044500;28;69416;-67
2024/02/16 05:55:21;;;;;;;;;6.00;5.50;;;;;15.99;74.30;100594.88;5040100;28;45311;-68
2024/02/16 05:57:46;;;;;;;;;6.25;5.50;;;;;15.99;73.83;100600.16;5040478;28;45664;-67
2024/02/16 06:00:13;;;;;;;;;6.75;5.25;;;;;15.99;74.35;100612.50;5039625;28;57141;-68
2024/02/16 06:02:38;;;;;;;;;6.50;4.50;;;;;15.99;74.16;100612.50;5043610;28;45418;-67
2024/02/16 06:05:04;;;;;;;;;6.50;5.50;;;;;15.97;74.24;100609.97;5041129;28;67917;-68
2024/02/16 06:07:30;;;;;;;;;7.00;5.50;;;;;15.96;74.42;100610.03;5037195;28;46256;-67
2024/02/16 06:09:56;;;;;;;;;5.50;5.00;;;;;15.93;74.30;100614.50;5040834;28;45359;-67
2024/02/16 06:12:21;;;;;;;;;4.50;4.50;;;;;15.92;74.38;100623.38;5042446;28;45539;-67
2024/02/16 06:14:48;;;;;;;;;5.75;4.25;;;;;15.93;74.52;100621.56;5046749;28;47308;-67
2024/02/16 06:17:14;;;;;;;;;7.50;4.50;;;;;15.90;74.67;100619.97;5044457;28;45432;-68
2024/02/16 06:19:43;;;;;;;;;5.00;5.00;;;;;15.91;74.88;100629.56;5045247;28;45707;-67
2024/02/16 06:22:08;;;;;;;;;8.25;6.50;;;;;15.89;74.68;100641.16;5048783;28;45500;-67
2024/02/16 06:24:34;;;;;;;;;9.75;5.50;;;;;15.88;74.50;100639.44;5048481;28;72144;-67
2024/02/16 06:26:59;;;;;;;;;5.75;5.75;;;;;15.88;74.90;100642.94;5040816;28;46945;-67
2024/02/16 06:29:25;;;;;;;;;6.00;5.00;;;;;15.89;74.84;100641.16;5040587;28;61181;-67
2024/02/16 06:31:50;;;;;;;;;5.25;4.50;;;;;15.89;74.96;100651.72;5034444;28;70269;-67
2024/02/16 06:34:15;;;;;;;;;6.50;5.50;;;;;15.88;74.99;100652.63;5039831;28;72146;-67
2024/02/16 06:36:44;;;;;;;;;5.75;5.75;;;;;15.87;75.23;100656.22;5040707;28;55303;-67
2024/02/16 06:39:11;;;;;;;;;6.25;6.00;;;;;15.85;75.60;100669.47;5040699;28;45314;-68
2024/02/16 06:41:37;;;;;;;;;7.50;6.00;;;;;15.85;75.32;100668.63;5040995;28;45442;-69
2024/02/16 06:44:03;;;;;;;;;4.75;4.75;;;;;15.85;75.71;100671.28;5040805;28;45225;-68
2024/02/16 06:46:29;;;;;;;;;7.50;7.00;;;;;15.86;75.80;100671.16;5040623;28;45574;-68
2024/02/16 06:48:56;;;;;;;;;6.00;5.00;;;;;15.88;75.75;100673.75;5040903;28;45338;-67
2024/02/16 06:51:23;;;;;;;;;5.00;4.75;;;;;15.88;75.66;100677.25;5040862;28;45280;-68
2024/02/16 06:53:48;;;;;;;;;5.75;5.00;;;;;15.87;75.94;100678.16;5039630;28;45511;-68
2024/02/16 06:56:14;;;;;;;;;7.75;5.00;;;;;15.87;75.86;100690.53;5041688;28;71830;-68
2024/02/16 06:58:39;;;;;;;;;3.00;3.00;;;;;15.86;75.99;100692.28;5040440;28;45452;-68
2024/02/16 07:01:04;;;;;;;;;4.25;3.50;;;;;15.88;76.21;100695.72;5043082;28;45467;-68
2024/02/16 07:03:30;;;;;;;;;5.75;4.75;;;;;15.89;75.90;100699.22;5040475;28;45250;-68
2024/02/16 07:05:55;;;;;;;;;4.50;4.50;;;;;15.88;76.23;100698.38;5040538;28;45286;-68
2024/02/16 07:08:23;;;;;;;;;6.25;3.75;;;;;15.91;75.91;100700.81;5039245;28;45469;-68
2024/02/16 07:10:51;;;;;;;;;6.50;6.00;;;;;15.89;76.46;100709.78;5042144;28;45330;-68
2024/02/16 07:13:17;;;;;;;;;5.50;4.00;;;;;15.91;76.28;100706.09;5038828;28;45589;-68
2024/02/16 07:15:42;;;;;;;;;4.75;3.75;;;;;15.89;76.30;100717.69;5050884;28;47092;-67
2024/02/16 07:18:08;;;;;;;;;5.75;3.50;;;;;15.88;76.60;100724.75;5055719;28;45321;-68
2024/02/16 07:20:33;;;;;;;;;6.50;4.25;;;;;15.88;76.88;100731.78;5040366;28;64622;-76
2024/02/16 07:22:58;;;;;;;;;9.25;5.25;;;;;15.90;76.42;100724.66;5040397;28;57499;-73
2024/02/16 07:25:24;;;;;;;;;8.75;5.75;;;;;15.89;76.31;100730.88;5040002;28;68214;-73
2024/02/16 07:27:50;;;;;;;;;8.00;5.25;;;;;15.96;76.42;100744.63;5039373;28;47092;-68
2024/02/16 07:30:24;;;;;;;;;6.75;3.00;;;;;16.00;76.47;100747.03;5082910;27;45227;-65
2024/02/16 07:32:50;;;;;;;;;8.75;3.25;;;;;16.04;76.20;100761.81;5074876;27;45476;-70
2024/02/16 07:35:16;;;;;;;;;3.25;3.25;;;;;16.04;76.55;100766.22;5075672;28;45391;-64
2024/02/16 07:37:41;;;;;;;;;5.25;4.00;;;;;16.06;76.23;100774.91;5073984;27;45219;-66
2024/02/16 07:40:09;;;;;;;;;3.25;3.25;;;;;16.06;76.23;100780.19;5067182;28;45415;-67
2024/02/16 07:42:37;;;;;;;;;5.00;4.00;;;;;16.09;76.16;100780.88;5057758;27;45739;-68
2024/02/16 07:45:04;;;;;;;;;3.75;2.00;;;;;16.12;75.83;100782.53;5073960;28;45355;-67
2024/02/16 07:47:31;;;;;;;;;3.00;2.00;;;;;16.10;75.66;100787.88;5059050;27;45549;-70
2024/02/16 07:49:57;;;;;;;;;2.50;2.00;;;;;16.09;75.92;100799.38;5067823;28;45352;-68
2024/02/16 07:52:23;;;;;;;;;5.75;2.25;;;;;16.12;75.91;100814.22;5069360;28;45241;-67
2024/02/16 07:54:48;;;;;;;;;5.50;2.25;;;;;16.14;75.70;100818.47;5065213;27;68342;-67
2024/02/16 07:57:14;;;;;;;;;3.00;1.25;;;;;16.16;76.05;100815.75;5065300;27;45549;-64
2024/02/16 07:59:40;;;;;;;;;1.50;1.00;;;;;16.17;75.54;100820.13;5066739;27;45442;-71
2024/02/16 08:02:09;;;;;;;;;6.00;2.00;;;;;16.16;75.38;100817.56;5070807;28;45316;-70
2024/02/16 08:04:34;;;;;;;;;1.50;1.25;;;;;16.15;75.58;100824.63;5065470;27;45439;-73
2024/02/16 08:07:01;;;;;;;;;3.00;2.00;;;;;16.16;75.25;100820.19;5062886;27;45295;-72
2024/02/16 08:09:26;;;;;;;;;3.50;1.00;;;;;16.17;75.21;100824.56;5063855;27;45187;-68
2024/02/16 08:11:52;;;;;;;;;5.75;2.50;;;;;16.16;75.19;100821.03;5062919;27;45328;-69
2024/02/16 08:14:17;;;;;;;;;6.25;1.50;;;;;16.16;75.02;100826.31;5067460;28;45292;-68
2024/02/16 08:16:42;;;;;;;;;2.25;1.00;;;;;16.17;75.34;100828.06;5069910;27;45500;-65
2024/02/16 08:19:08;;;;;;;;;11.00;6.75;;;;;16.15;75.00;100824.63;5076183;28;45375;-71
2024/02/16 08:21:33;;;;;;;;;5.25;2.50;;;;;16.21;75.04;100832.25;5070369;28;51039;-68
2024/02/16 08:23:58;;;;;;;;;2.25;2.00;;;;;16.20;75.09;100833.19;5065709;28;68147;-68
2024/02/16 08:26:24;;;;;;;;;4.50;4.00;;;;;16.20;75.10;100834.94;5070357;28;69671;-67
2024/02/16 08:28:50;;;;;;;;;10.25;3.00;;;;;16.20;74.94;100842.88;5073780;27;45391;-67
2024/02/16 08:31:18;;;;;;;;;3.25;3.25;;;;;16.19;75.00;100846.47;5088008;27;45459;-68
2024/02/16 08:33:45;;;;;;;;;2.50;2.00;;;;;16.17;74.75;100845.69;5093196;27;45274;-67
2024/02/16 08:36:10;;;;;;;;;6.50;3.00;;;;;16.17;74.92;100850.97;5086240;27;45459;-67
2024/02/16 08:38:39;;;;;;;;;3.50;2.25;;;;;16.17;74.69;100851.81;5093213;27;46287;-68
2024/02/16 08:41:04;;;;;;;;;5.25;2.50;;;;;16.18;74.98;100853.50;5074725;28;45312;-68
2024/02/16 08:43:30;;;;;;;;;7.00;1.75;;;;;16.12;75.01;100848.53;5072730;28;45482;-73
2024/02/16 08:45:56;;;;;;;;;2.75;1.50;;;;;16.18;74.75;100869.34;5074461;27;45388;-76
2024/02/16 08:48:21;;;;;;;;;3.00;2.50;;;;;16.17;74.89;100872.94;5060790;28;45418;-73
2024/02/16 08:50:47;;;;;;;;;2.50;2.00;;;;;16.16;74.66;100871.22;5071150;27;45526;-77
2024/02/16 08:53:13;;;;;;;;;4.00;2.00;;;;;16.18;74.44;100874.63;5076164;27;45544;-71
2024/02/16 08:55:39;;;;;;;;;5.75;1.75;;;;;16.17;74.66;100880.00;5080363;27;45382;-76
2024/02/16 08:58:07;;;;;;;;;1.50;1.50;;;;;16.17;74.71;100877.38;5086946;27;45273;-71
2024/02/16 09:00:32;;;;;;;;;1.50;1.25;;;;;16.16;74.81;100884.41;5066196;27;45275;-77
2024/02/16 09:02:58;;;;;;;;;2.00;1.75;;;;;16.17;74.81;100882.66;5062677;28;68082;-75
2024/02/16 09:05:23;;;;;;;;;4.00;2.00;;;;;16.16;74.44;100894.97;5078559;28;45570;-78
2024/02/16 09:07:49;;;;;;;;;2.50;1.00;;;;;16.15;74.52;100898.56;5077974;27;60681;-74
2024/02/16 09:10:14;;;;;;;;;2.00;1.00;;;;;16.12;74.62;100888.97;5072836;27;70594;-76
2024/02/16 09:12:40;;;;;;;;;3.00;1.00;;;;;16.10;74.59;100893.50;5057718;28;66597;-78
2024/02/16 09:15:08;;;;;;;;;1.00;1.00;;;;;16.11;74.50;100896.97;5055648;28;45226;-70
2024/02/16 09:17:33;;;;;;;;;2.25;1.50;;;;;16.10;74.70;100898.78;5067007;28;48035;-66
2024/02/16 09:19:59;;;;;;;;;2.75;1.75;;;;;16.10;74.56;100900.56;5074062;28;45485;-68
2024/02/16 09:22:25;;;;;;;;;4.00;3.25;;;;;16.11;74.73;100908.41;5076879;27;45297;-68
2024/02/16 09:24:50;;;;;;;;;3.00;1.75;;;;;16.11;74.69;100900.50;5067921;28;45625;-67
2024/02/16 09:27:15;;;;;;;;;3.25;2.00;;;;;16.16;74.58;100913.47;5073071;28;73228;-67
2024/02/16 09:29:41;;;;;;;;;2.00;2.00;;;;;16.17;74.89;100915.19;5050296;28;45315;-68
2024/02/16 09:32:06;;;;;;;;;4.50;3.00;;;;;16.21;74.87;100921.16;5061684;28;45472;-68
2024/02/16 09:34:32;;;;;;;;;6.00;2.25;;;;;16.20;74.85;100928.25;5081460;28;60781;-70
2024/02/16 09:36:57;;;;;;;;;4.50;1.00;;;;;16.15;75.11;100927.59;5069699;28;46182;-69
2024/02/16 09:39:22;;;;;;;;;3.50;1.00;;;;;16.14;75.10;100934.66;5075151;28;64099;-66
2024/02/16 09:41:54;;;;;;;;;1.50;0.75;;;;;16.10;75.26;100940.16;5071220;27;69381;-75
2024/02/16 09:44:22;;;;;;;;;3.00;0.50;;;;;16.07;75.85;100938.50;5071770;28;45304;-73
2024/02/16 09:46:47;;;;;;;;;2.50;1.50;;;;;16.09;76.32;100943.72;5087186;27;45008;-75
2024/02/16 09:49:12;;;;;;;;;2.50;1.25;;;;;16.11;76.32;100950.66;5087007;27;67028;-72
2024/02/16 09:51:38;;;;;;;;;2.25;1.50;;;;;16.14;76.31;100952.28;5100366;27;51709;-70
2024/02/16 09:54:04;;;;;;;;;4.50;1.00;;;;;16.16;76.75;100962.78;5090256;27;45545;-72
2024/02/16 09:56:29;;;;;;;;;4.00;2.50;;;;;16.12;77.22;100964.72;5073825;28;63809;-73
2024/02/16 09:58:54;;;;;;;;;4.25;2.25;;;;;16.09;77.52;100970.97;5055589;28;45302;-77
2024/02/16 10:01:21;;;;;;;;;4.50;3.25;;;;;16.04;78.02;100980.91;5081827;27;44748;-77
2024/02/16 10:03:47;;;;;;;;;3.25;2.25;;;;;16.00;78.66;100975.84;5075697;27;45789;-68
2024/02/16 10:06:15;;;;;;;;;3.50;1.75;;;;;16.00;79.45;100984.59;5068780;27;45485;-68
2024/02/16 10:09:00;;;;;;;;;3.50;3.00;;;;;15.96;79.64;100993.59;5076958;28;45312;-66
2024/02/16 10:11:30;;;;;;;;;4.50;4.00;;;;;15.97;79.82;101002.34;5078274;27;45471;-66
2024/02/16 10:13:58;;;;;;;;;7.00;2.25;;;;;15.98;80.01;101006.72;5080700;28;45276;-66
2024/02/16 10:16:24;;;;;;;;;7.75;4.25;;;;;15.97;80.72;101010.28;5078112;28;46454;-66
2024/02/16 10:18:49;;;;;;;;;3.50;2.50;;;;;15.94;80.50;101013.94;5082302;27;45272;-66
2024/02/16 10:21:25;;;;;;;;;3.75;3.75;;;;;15.93;80.67;101028.03;5079086;27;65491;-67
2024/02/16 10:24:01;;;;;;;;;3.50;3.00;;;;;15.93;81.30;101026.25;5069157;28;45433;-68
2024/02/16 10:26:30;;;;;;;;;7.25;5.00;;;;;15.97;81.70;101026.13;5077333;28;45692;-69
2024/02/16 10:29:02;;;;;;;;;5.75;4.75;;;;;15.97;81.36;101037.56;5059786;28;45552;-72
2024/02/16 10:31:30;;;;;;;;;5.00;5.00;;;;;15.96;81.67;101045.53;5062640;27;45342;-69
2024/02/16 10:34:06;;;;;;;;;9.00;6.00;;;;;15.92;80.99;101048.31;5033945;28;45412;-67
2024/02/16 10:36:35;;;;;;;;;6.25;6.00;;;;;15.85;80.99;101053.94;5073438;27;45568;-69
2024/02/16 10:39:04;;;;;;;;;8.50;6.00;;;;;15.74;80.83;101063.16;5069843;28;45342;-68
2024/02/16 10:41:34;;;;;;;;;15.00;11.00;;;;;15.62;80.83;101082.13;5071297;27;45278;-66
2024/02/16 10:44:01;;;;;;;;;10.75;8.75;;;;;15.44;80.57;101073.22;5068820;28;45484;-70
2024/02/16 10:46:27;;;;;;;;;17.50;13.50;;;;;15.29;80.29;101079.97;5077279;28;45312;-69
2024/02/16 10:48:52;;;;;;;;;9.25;9.25;;;;;15.21;80.28;101081.19;5059566;28;74603;-69
2024/02/16 10:51:40;;;;;;;;;15.00;13.75;;;;;15.14;80.15;101096.44;5071541;27;45586;-67
2024/02/16 10:54:07;;;;;;;;;14.75;14.75;;;;;15.04;80.04;101098.56;5059107;28;72164;-72
2024/02/16 10:56:34;;;;;;;;;21.25;18.75;;;;;15.00;80.46;101116.28;5062243;28;48333;-68
2024/02/16 10:59:04;;;;;;;;;20.00;16.00;;;;;14.94;80.58;101115.66;5057901;28;45745;-67
2024/02/16 11:01:40;;;;;;;;;18.50;16.50;;;;;14.92;81.04;101131.53;5079322;27;45420;-68
2024/02/16 11:04:10;;;;;;;;;22.50;21.00;;;;;14.90;80.79;101128.09;5072824;27;45388;-68
2024/02/16 11:06:49;;;;;;;;;19.00;17.00;;;;;14.88;80.43;101137.00;5059253;28;45686;-60
2024/02/16 11:09:33;;;;;;;;;20.00;19.00;;;;;14.86;81.14;101139.69;5055174;28;45469;-67
2024/02/16 11:12:01;;;;;;;;;20.00;20.00;;;;;14.84;81.14;101132.72;5055689;28;45491;-64
2024/02/16 11:14:36;;;;;;;;;28.25;21.50;;;;;14.92;81.11;101136.78;5071015;28;45257;-62
2024/02/16 11:17:08;;;;;;;;;28.50;25.50;;;;;14.95;80.87;101134.03;5078089;28;46749;-60
2024/02/16 11:19:34;;;;;;;;;25.50;23.25;;;;;14.99;80.49;101142.69;5078729;27;45229;-58